createdAt,value
2023-02-16T00:01:27.794Z,5.10
2023-02-16T00:03:56.789Z,5.10
2023-02-16T00:06:25.590Z,5.10
2023-02-16T00:08:55.063Z,5.00
2023-02-16T00:11:44.804Z,5.00
2023-02-16T00:14:14.126Z,5.00
2023-02-16T00:16:43.853Z,5.10
2023-02-16T00:19:19.721Z,5.10
2023-02-16T00:21:47.902Z,5.00
2023-02-16T00:24:16.845Z,5.00
2023-02-16T00:26:45.760Z,5.00
2023-02-16T00:29:19.483Z,5.00
2023-02-16T00:31:49.265Z,5.00
2023-02-16T00:34:33.346Z,5.00
2023-02-16T00:37:03.494Z,5.10
2023-02-16T00:39:31.842Z,5.10
2023-02-16T00:42:03.945Z,5.00
2023-02-16T00:44:35.271Z,4.90
2023-02-16T00:47:11.888Z,4.90
2023-02-16T00:49:39.998Z,4.90
2023-02-16T00:52:27.159Z,4.90
2023-02-16T00:54:55.225Z,5.00
2023-02-16T00:57:24.286Z,5.00
2023-02-16T01:00:01.514Z,4.90
2023-02-16T01:02:30.993Z,4.90
2023-02-16T01:04:59.236Z,4.90
2023-02-16T01:07:45.799Z,4.90
2023-02-16T01:10:31.400Z,4.90
2023-02-16T01:12:59.748Z,5.00
2023-02-16T01:15:28.432Z,4.90
2023-02-16T01:17:57.835Z,4.90
2023-02-16T01:20:27.309Z,4.90
2023-02-16T01:22:55.659Z,4.90
2023-02-16T01:25:23.734Z,4.90
2023-02-16T01:27:54.131Z,4.90
2023-02-16T01:30:23.952Z,4.90
2023-02-16T01:32:52.347Z,4.90
2023-02-16T01:35:22.876Z,4.90
2023-02-16T01:37:51.725Z,4.90
2023-02-16T01:40:31.577Z,4.90
2023-02-16T01:43:05.520Z,4.90
2023-02-16T01:45:36.713Z,4.90
2023-02-16T01:48:06.997Z,4.90
2023-02-16T01:50:43.830Z,4.90
2023-02-16T01:53:19.218Z,4.90
2023-02-16T01:55:50.444Z,4.90
2023-02-16T01:58:27.998Z,4.90
2023-02-16T02:01:50.809Z,4.90
2023-02-16T02:04:46.491Z,4.90
2023-02-16T02:07:25.233Z,4.90
2023-02-16T02:10:02.289Z,4.90
2023-02-16T02:12:38.535Z,4.80
2023-02-16T02:15:09.165Z,4.80
2023-02-16T02:17:37.755Z,4.80
2023-02-16T02:20:14.705Z,4.80
2023-02-16T02:23:34.137Z,4.80
2023-02-16T02:26:42.458Z,4.80
2023-02-16T02:29:48.412Z,4.90
2023-02-16T02:32:28.829Z,4.90
2023-02-16T02:35:19.781Z,4.80
2023-02-16T02:37:54.408Z,4.80
2023-02-16T02:40:32.781Z,4.80
2023-02-16T02:43:08.391Z,4.80
2023-02-16T02:45:44.184Z,4.80
2023-02-16T02:48:12.347Z,4.90
2023-02-16T02:51:11.008Z,4.90
2023-02-16T02:53:44.695Z,4.80
2023-02-16T02:56:33.977Z,4.80
2023-02-16T02:59:23.548Z,4.80
2023-02-16T03:01:57.305Z,4.80
2023-02-16T03:04:29.546Z,4.80
2023-02-16T03:06:59.794Z,4.80
2023-02-16T03:09:28.434Z,4.80
2023-02-16T03:12:15.825Z,4.80
2023-02-16T03:14:47.640Z,4.80
2023-02-16T03:17:36.666Z,4.80
2023-02-16T03:20:26.967Z,4.90
2023-02-16T03:23:13.327Z,4.80
2023-02-16T03:25:59.834Z,4.80
2023-02-16T03:28:48.605Z,4.80
2023-02-16T03:31:21.111Z,4.80
2023-02-16T03:33:54.612Z,4.90
2023-02-16T03:36:23.591Z,4.80
2023-02-16T03:38:52.344Z,4.80
2023-02-16T03:41:20.795Z,4.80
2023-02-16T03:43:48.788Z,4.90
2023-02-16T03:46:16.981Z,4.90
2023-02-16T03:48:45.024Z,4.90
2023-02-16T03:51:14.417Z,5.00
2023-02-16T03:53:42.454Z,4.90
2023-02-16T03:56:10.526Z,4.90
2023-02-16T03:58:38.826Z,4.90
2023-02-16T04:01:07.167Z,4.90
2023-02-16T04:03:35.364Z,4.90
2023-02-16T04:06:03.384Z,4.80
2023-02-16T04:08:32.761Z,4.90
2023-02-16T04:11:00.832Z,4.90
2023-02-16T04:13:27.881Z,4.90
2023-02-16T04:15:55.864Z,4.90
2023-02-16T04:18:23.858Z,4.80
2023-02-16T04:20:52.334Z,4.80
2023-02-16T04:23:20.748Z,4.80
2023-02-16T04:25:50.086Z,4.80
2023-02-16T04:28:18.080Z,4.80
2023-02-16T04:30:46.140Z,4.90
2023-02-16T04:33:14.196Z,4.90
2023-02-16T04:35:42.216Z,4.80
2023-02-16T04:38:10.325Z,4.90
2023-02-16T04:40:38.328Z,4.90
2023-02-16T04:43:07.653Z,4.90
2023-02-16T04:45:35.700Z,4.90
2023-02-16T04:48:03.761Z,4.90
2023-02-16T04:50:31.821Z,4.90
2023-02-16T04:52:59.991Z,5.00
2023-02-16T04:55:28.176Z,5.00
2023-02-16T04:57:56.171Z,4.90
2023-02-16T05:00:25.714Z,4.90
2023-02-16T05:02:54.048Z,4.80
2023-02-16T05:05:22.089Z,4.80
2023-02-16T05:07:50.129Z,4.80
2023-02-16T05:10:18.180Z,4.80
2023-02-16T05:13:03.940Z,4.80
2023-02-16T05:15:33.406Z,4.80
2023-02-16T05:18:01.433Z,4.80
2023-02-16T05:20:43.490Z,4.70
2023-02-16T05:23:11.512Z,4.80
2023-02-16T05:25:39.756Z,4.80
2023-02-16T05:28:07.860Z,4.90
2023-02-16T05:30:37.274Z,4.90
2023-02-16T05:33:05.308Z,4.80
2023-02-16T05:35:34.596Z,4.80
2023-02-16T05:38:02.632Z,4.80
2023-02-16T05:40:30.734Z,4.80
2023-02-16T05:42:59.724Z,4.90
2023-02-16T05:45:27.743Z,4.80
2023-02-16T05:47:57.078Z,4.80
2023-02-16T05:50:25.106Z,4.80
2023-02-16T05:52:53.136Z,4.80
2023-02-16T05:55:21.145Z,4.80
2023-02-16T05:57:49.154Z,4.80
2023-02-16T06:00:18.063Z,4.80
2023-02-16T06:02:46.215Z,4.80
2023-02-16T06:05:15.682Z,4.80
2023-02-16T06:07:43.717Z,4.90
2023-02-16T06:10:11.840Z,4.90
2023-02-16T06:12:39.834Z,4.90
2023-02-16T06:15:08.379Z,4.80
2023-02-16T06:17:36.397Z,4.80
2023-02-16T06:20:05.979Z,4.80
2023-02-16T06:22:35.362Z,4.80
2023-02-16T06:25:03.645Z,4.80
2023-02-16T06:27:31.746Z,4.80
2023-02-16T06:29:59.809Z,4.90
2023-02-16T06:32:28.073Z,4.80
2023-02-16T06:34:56.256Z,4.80
2023-02-16T06:37:25.404Z,4.80
2023-02-16T06:39:54.789Z,4.70
2023-02-16T06:42:22.818Z,4.80
2023-02-16T06:44:50.822Z,4.80
2023-02-16T06:47:18.857Z,4.80
2023-02-16T06:49:46.888Z,4.80
2023-02-16T06:52:15.136Z,4.80
2023-02-16T06:54:43.110Z,4.80
2023-02-16T06:57:12.476Z,4.80
2023-02-16T06:59:40.767Z,4.70
2023-02-16T07:02:08.812Z,4.70
2023-02-16T07:04:37.078Z,4.70
2023-02-16T07:07:05.201Z,4.80
2023-02-16T07:09:33.384Z,4.80
2023-02-16T07:12:01.400Z,4.80
2023-02-16T07:14:32.073Z,4.80
2023-02-16T07:17:04.131Z,4.80
2023-02-16T07:19:33.764Z,4.70
2023-02-16T07:22:02.649Z,4.80
2023-02-16T07:24:30.898Z,4.80
2023-02-16T07:26:58.930Z,4.70
2023-02-16T07:29:27.034Z,4.80
2023-02-16T07:31:56.614Z,4.80
2023-02-16T07:34:24.776Z,4.80
2023-02-16T07:36:52.793Z,4.80
2023-02-16T07:39:20.810Z,4.80
2023-02-16T07:41:48.811Z,4.90
2023-02-16T07:44:19.304Z,4.90
2023-02-16T07:46:47.318Z,4.90
2023-02-16T07:49:16.687Z,4.80
2023-02-16T07:51:45.022Z,4.90
2023-02-16T07:54:13.106Z,4.90
2023-02-16T07:56:41.156Z,5.00
2023-02-16T07:59:09.147Z,4.90
2023-02-16T08:01:39.954Z,4.80
2023-02-16T08:04:08.181Z,4.90
2023-02-16T08:06:37.737Z,4.90
2023-02-16T08:09:05.821Z,4.90
2023-02-16T08:11:33.878Z,4.90
2023-02-16T08:14:01.969Z,4.90
2023-02-16T08:16:30.801Z,5.00
2023-02-16T08:19:00.309Z,4.90
2023-02-16T08:21:31.444Z,4.90
2023-02-16T08:24:02.544Z,4.90
2023-02-16T08:26:34.422Z,4.90
2023-02-16T08:29:02.424Z,4.90
2023-02-16T08:31:32.219Z,5.00
2023-02-16T08:34:01.629Z,5.00
2023-02-16T08:36:32.707Z,5.00
2023-02-16T08:39:04.106Z,5.00
2023-02-16T08:41:34.241Z,4.90
2023-02-16T08:44:03.187Z,4.90
2023-02-16T08:46:35.760Z,4.90
2023-02-16T08:49:04.465Z,4.90
2023-02-16T08:51:35.597Z,5.00
2023-02-16T08:54:07.832Z,5.00
2023-02-16T08:56:36.049Z,5.10
2023-02-16T08:59:04.085Z,5.10
2023-02-16T09:01:32.345Z,5.10
2023-02-16T09:04:00.473Z,5.10
2023-02-16T09:06:28.657Z,5.10
2023-02-16T09:08:58.039Z,5.10
2023-02-16T09:11:27.392Z,5.10
2023-02-16T09:13:55.387Z,5.10
2023-02-16T09:16:25.041Z,5.20
2023-02-16T09:18:53.654Z,5.20
2023-02-16T09:21:25.293Z,5.20
2023-02-16T09:23:55.734Z,5.20
2023-02-16T09:26:25.600Z,5.10
2023-02-16T09:28:55.642Z,5.10
2023-02-16T09:31:27.211Z,5.10
2023-02-16T09:33:57.158Z,5.10
2023-02-16T09:36:25.719Z,5.20
2023-02-16T09:38:54.464Z,5.30
2023-02-16T09:41:31.729Z,5.20
2023-02-16T09:44:08.115Z,5.10
2023-02-16T09:46:36.651Z,5.10
2023-02-16T09:49:06.432Z,5.10
2023-02-16T09:51:37.465Z,5.10
2023-02-16T09:54:18.919Z,5.10
2023-02-16T09:56:53.847Z,5.10
2023-02-16T09:59:38.113Z,5.10
2023-02-16T10:02:39.001Z,5.10
2023-02-16T10:05:20.104Z,5.10
2023-02-16T10:08:09.354Z,5.20
2023-02-16T10:10:47.938Z,5.20
2023-02-16T10:13:23.754Z,5.20
2023-02-16T10:15:55.106Z,5.30
2023-02-16T10:18:29.300Z,5.20
2023-02-16T10:21:02.046Z,5.20
2023-02-16T10:23:41.568Z,5.30
2023-02-16T10:26:17.801Z,5.30
2023-02-16T10:28:50.183Z,5.30
2023-02-16T10:31:29.104Z,5.30
2023-02-16T10:34:09.962Z,5.30
2023-02-16T10:36:51.757Z,5.30
2023-02-16T10:39:27.320Z,5.30
2023-02-16T10:42:03.526Z,5.30
2023-02-16T10:44:37.358Z,5.30
2023-02-16T10:47:13.597Z,5.40
2023-02-16T10:49:41.978Z,5.40
2023-02-16T10:52:10.659Z,5.30
2023-02-16T10:54:38.896Z,5.30
2023-02-16T10:57:08.010Z,5.30
2023-02-16T10:59:44.287Z,5.30
2023-02-16T11:02:20.461Z,5.40
2023-02-16T11:04:52.382Z,5.40
2023-02-16T11:07:22.426Z,5.40
2023-02-16T11:09:52.956Z,5.40
2023-02-16T11:12:30.912Z,5.40
2023-02-16T11:15:03.293Z,5.50
2023-02-16T11:17:48.098Z,5.50
2023-02-16T11:20:28.547Z,5.40
2023-02-16T11:23:15.000Z,5.40
2023-02-16T11:25:43.197Z,5.50
2023-02-16T11:28:12.373Z,5.50
2023-02-16T11:30:43.302Z,5.40
2023-02-16T11:33:24.843Z,5.50
2023-02-16T11:35:52.963Z,5.50
2023-02-16T11:38:32.630Z,5.50
2023-02-16T11:41:03.075Z,5.50
2023-02-16T11:43:34.393Z,5.50
2023-02-16T11:46:05.111Z,5.40
2023-02-16T11:48:35.179Z,5.40
2023-02-16T11:51:06.218Z,5.40
2023-02-16T11:53:36.250Z,5.50
2023-02-16T11:56:20.729Z,5.50
2023-02-16T11:59:15.515Z,5.50
2023-02-16T12:02:09.430Z,5.50
2023-02-16T12:04:52.680Z,5.60
2023-02-16T12:07:29.645Z,5.70
2023-02-16T12:10:08.071Z,5.70
2023-02-16T12:12:48.021Z,5.80
2023-02-16T12:15:22.189Z,5.80
2023-02-16T12:18:03.400Z,5.80
2023-02-16T12:20:46.320Z,5.80
2023-02-16T12:23:26.797Z,5.80
2023-02-16T12:26:05.605Z,5.80
2023-02-16T12:28:43.080Z,5.80
2023-02-16T12:31:22.227Z,5.80
2023-02-16T12:33:55.738Z,5.80
2023-02-16T12:36:54.512Z,5.90
2023-02-16T12:39:30.791Z,6.00
2023-02-16T12:42:26.069Z,6.10
2023-02-16T12:44:57.618Z,6.10
2023-02-16T12:47:30.828Z,6.30
2023-02-16T12:50:03.389Z,6.30
2023-02-16T12:52:43.085Z,6.40
2023-02-16T12:55:21.981Z,6.40
2023-02-16T12:57:56.419Z,6.40
2023-02-16T13:00:32.029Z,6.30
2023-02-16T13:03:09.895Z,6.30
2023-02-16T13:05:39.048Z,6.40
2023-02-16T13:08:16.088Z,6.40
2023-02-16T13:10:54.033Z,6.40
2023-02-16T13:13:26.806Z,6.40
2023-02-16T13:16:09.547Z,6.50
2023-02-16T13:18:45.289Z,6.60
2023-02-16T13:21:26.360Z,6.60
2023-02-16T13:24:03.683Z,6.60
2023-02-16T13:26:55.736Z,6.70
2023-02-16T13:29:37.706Z,6.70
2023-02-16T13:32:19.255Z,6.70
2023-02-16T13:35:35.839Z,6.70
2023-02-16T13:38:20.269Z,6.70
2023-02-16T13:41:19.646Z,6.70
2023-02-16T13:43:53.873Z,6.70
2023-02-16T13:46:29.543Z,6.70
2023-02-16T13:48:58.175Z,6.60
2023-02-16T13:51:30.908Z,6.60
2023-02-16T13:54:01.641Z,6.60
2023-02-16T13:56:36.937Z,6.60
2023-02-16T13:59:56.581Z,6.50
2023-02-16T14:02:54.316Z,6.60
2023-02-16T14:05:29.005Z,6.60
2023-02-16T14:08:18.773Z,6.50
2023-02-16T14:11:10.129Z,6.50
2023-02-16T14:13:51.274Z,6.50
2023-02-16T14:16:34.089Z,6.50
2023-02-16T14:19:05.779Z,6.50
2023-02-16T14:21:39.668Z,6.60
2023-02-16T14:24:13.526Z,6.60
2023-02-16T14:26:56.431Z,6.60
2023-02-16T14:29:31.005Z,6.60
2023-02-16T14:32:04.554Z,6.70
2023-02-16T14:34:38.880Z,6.70
2023-02-16T14:37:29.925Z,6.70
2023-02-16T14:40:19.088Z,6.80
2023-02-16T14:42:56.807Z,6.90
2023-02-16T14:46:07.846Z,6.90
2023-02-16T14:49:04.939Z,7.00
2023-02-16T14:52:09.618Z,7.00
2023-02-16T14:55:15.297Z,7.00
2023-02-16T14:57:49.526Z,7.00
2023-02-16T15:00:26.760Z,7.00
2023-02-16T15:02:59.671Z,7.00
2023-02-16T15:05:32.962Z,7.00
2023-02-16T15:08:10.466Z,7.00
2023-02-16T15:10:40.479Z,7.00
2023-02-16T15:13:09.862Z,7.00
2023-02-16T15:15:46.843Z,7.00
2023-02-16T15:18:18.149Z,7.10
2023-02-16T15:20:52.994Z,7.10
2023-02-16T15:23:23.607Z,7.00
2023-02-16T15:25:58.573Z,7.00
2023-02-16T15:28:29.338Z,7.00
2023-02-16T15:30:59.309Z,7.00
2023-02-16T15:33:33.465Z,7.00
2023-02-16T15:36:07.273Z,7.00
2023-02-16T15:38:37.950Z,7.00
2023-02-16T15:41:08.382Z,7.00
2023-02-16T15:43:39.870Z,7.00
2023-02-16T15:46:14.263Z,7.00
2023-02-16T15:48:42.592Z,7.00
2023-02-16T15:51:16.840Z,7.00
2023-02-16T15:53:49.393Z,7.00
2023-02-16T15:56:35.043Z,7.00
2023-02-16T15:59:13.651Z,7.00
2023-02-16T16:01:41.736Z,6.90
2023-02-16T16:04:19.572Z,7.00
2023-02-16T16:06:51.273Z,7.00
2023-02-16T16:09:25.352Z,7.00
2023-02-16T16:11:58.120Z,7.00
2023-02-16T16:14:27.135Z,7.00
2023-02-16T16:16:55.924Z,7.00
2023-02-16T16:19:31.784Z,7.10
2023-02-16T16:22:01.257Z,7.10
2023-02-16T16:24:33.982Z,7.20
2023-02-16T16:27:05.464Z,7.20
2023-02-16T16:29:36.440Z,7.30
2023-02-16T16:32:06.219Z,7.30
2023-02-16T16:34:36.870Z,7.40
2023-02-16T16:37:08.314Z,7.40
2023-02-16T16:39:41.516Z,7.50
2023-02-16T16:42:24.171Z,7.40
2023-02-16T16:45:01.533Z,7.50
2023-02-16T16:47:34.137Z,7.50
2023-02-16T16:50:06.488Z,7.50
2023-02-16T16:52:39.758Z,7.50
2023-02-16T16:55:22.875Z,7.50
2023-02-16T16:57:52.225Z,7.50
2023-02-16T17:00:21.625Z,7.50
2023-02-16T17:02:50.293Z,7.50
2023-02-16T17:05:19.061Z,7.50
2023-02-16T17:07:51.530Z,7.50
2023-02-16T17:10:21.516Z,7.50
2023-02-16T17:12:54.112Z,7.40
2023-02-16T17:15:30.539Z,7.50
2023-02-16T17:17:59.296Z,7.50
2023-02-16T17:20:28.275Z,7.50
2023-02-16T17:22:58.862Z,7.50
2023-02-16T17:25:26.905Z,7.50
2023-02-16T17:27:54.989Z,7.60
2023-02-16T17:30:23.289Z,7.50
2023-02-16T17:32:51.376Z,7.50
2023-02-16T17:35:19.392Z,7.50
2023-02-16T17:37:47.442Z,7.50
2023-02-16T17:40:20.273Z,7.50
2023-02-16T17:42:49.580Z,7.50
2023-02-16T17:45:20.227Z,7.40
2023-02-16T17:47:50.387Z,7.50
2023-02-16T17:50:19.339Z,7.50
2023-02-16T17:52:47.386Z,7.50
2023-02-16T17:55:17.197Z,7.50
2023-02-16T17:57:45.184Z,7.50
2023-02-16T18:00:19.081Z,7.50
2023-02-16T18:02:47.492Z,7.50
2023-02-16T18:05:15.682Z,7.50
2023-02-16T18:07:43.696Z,7.50
2023-02-16T18:10:20.419Z,7.50
2023-02-16T18:12:48.460Z,7.40
2023-02-16T18:15:16.591Z,7.40
2023-02-16T18:17:44.635Z,7.50
2023-02-16T18:20:16.054Z,7.40
2023-02-16T18:22:44.095Z,7.30
2023-02-16T18:25:12.211Z,7.40
2023-02-16T18:27:41.608Z,7.30
2023-02-16T18:30:10.885Z,7.30
2023-02-16T18:32:38.942Z,7.30
2023-02-16T18:35:07.302Z,7.30
2023-02-16T18:37:35.809Z,7.30
2023-02-16T18:40:04.697Z,7.20
2023-02-16T18:42:32.876Z,7.20
2023-02-16T18:45:02.997Z,7.20
2023-02-16T18:47:31.410Z,7.10
2023-02-16T18:49:59.440Z,7.20
2023-02-16T18:52:27.991Z,7.20
2023-02-16T18:54:56.080Z,7.10
2023-02-16T18:57:24.129Z,7.10
2023-02-16T18:59:52.164Z,7.10
2023-02-16T19:02:21.517Z,7.00
2023-02-16T19:04:49.622Z,7.00
2023-02-16T19:07:18.730Z,7.10
2023-02-16T19:09:46.753Z,7.00
2023-02-16T19:12:14.815Z,7.10
2023-02-16T19:14:42.894Z,7.10
2023-02-16T19:17:11.751Z,7.10
2023-02-16T19:19:41.085Z,7.10
2023-02-16T19:22:09.211Z,7.10
2023-02-16T19:24:37.254Z,7.10
2023-02-16T19:27:05.344Z,7.00
2023-02-16T19:29:33.375Z,7.10
2023-02-16T19:32:01.755Z,7.10
2023-02-16T19:34:29.788Z,7.10
2023-02-16T19:36:59.182Z,7.10
2023-02-16T19:39:27.187Z,7.10
2023-02-16T19:41:55.285Z,7.10
2023-02-16T19:44:23.289Z,7.20
2023-02-16T19:46:51.312Z,7.20
2023-02-16T19:49:19.791Z,7.20
2023-02-16T19:51:47.889Z,7.20
2023-02-16T19:54:17.366Z,7.30
2023-02-16T19:56:45.388Z,7.30
2023-02-16T19:59:15.304Z,7.30
2023-02-16T20:01:43.360Z,7.30
2023-02-16T20:04:12.973Z,7.30
2023-02-16T20:06:41.861Z,7.40
2023-02-16T20:09:13.212Z,7.40
2023-02-16T20:11:42.601Z,7.40
2023-02-16T20:14:12.228Z,7.40
2023-02-16T20:16:40.667Z,7.50
2023-02-16T20:19:08.817Z,7.50
2023-02-16T20:21:36.845Z,7.50
2023-02-16T20:24:06.456Z,7.50
2023-02-16T20:26:36.362Z,7.50
2023-02-16T20:29:07.565Z,7.50
2023-02-16T20:31:38.185Z,7.50
2023-02-16T20:34:07.377Z,7.60
2023-02-16T20:36:35.891Z,7.50
2023-02-16T20:39:05.590Z,7.60
2023-02-16T20:41:34.399Z,7.50
2023-02-16T20:44:03.671Z,7.50
2023-02-16T20:46:33.810Z,7.40
2023-02-16T20:49:02.174Z,7.40
2023-02-16T20:51:30.274Z,7.40
2023-02-16T20:53:59.982Z,7.40
2023-02-16T20:56:28.954Z,7.50
2023-02-16T20:58:58.426Z,7.50
2023-02-16T21:01:28.881Z,7.50
2023-02-16T21:03:59.862Z,7.50
2023-02-16T21:06:28.831Z,7.50
2023-02-16T21:08:57.217Z,7.50
2023-02-16T21:11:26.070Z,7.60
2023-02-16T21:13:54.445Z,7.70
2023-02-16T21:16:23.129Z,7.80
2023-02-16T21:18:51.465Z,7.80
2023-02-16T21:21:20.980Z,7.80
2023-02-16T21:23:51.596Z,7.80
2023-02-16T21:26:20.961Z,7.80
2023-02-16T21:28:49.411Z,7.80
2023-02-16T21:31:20.804Z,7.90
2023-02-16T21:33:49.194Z,7.90
2023-02-16T21:36:20.007Z,7.90
2023-02-16T21:38:50.165Z,7.80
2023-02-16T21:41:25.497Z,7.90
2023-02-16T21:43:55.782Z,7.80
2023-02-16T21:46:24.092Z,7.70
2023-02-16T21:48:51.536Z,7.70
2023-02-16T21:51:21.435Z,7.60
2023-02-16T21:53:51.636Z,7.60
2023-02-16T21:56:30.802Z,7.60
2023-02-16T21:58:58.934Z,7.60
2023-02-16T22:01:29.228Z,7.60
2023-02-16T22:03:59.218Z,7.60
2023-02-16T22:06:28.986Z,7.60
2023-02-16T22:08:58.679Z,7.50
2023-02-16T22:11:26.882Z,7.60
2023-02-16T22:13:55.844Z,7.60
2023-02-16T22:16:25.032Z,7.60
2023-02-16T22:18:57.756Z,7.60
2023-02-16T22:21:26.180Z,7.50
2023-02-16T22:23:54.745Z,7.50
2023-02-16T22:26:26.784Z,7.50
2023-02-16T22:28:55.615Z,7.50
2023-02-16T22:31:25.538Z,7.60
2023-02-16T22:33:57.068Z,7.50
2023-02-16T22:36:25.092Z,7.50
2023-02-16T22:38:53.970Z,7.50
2023-02-16T22:41:24.620Z,7.60
2023-02-16T22:43:54.425Z,7.50
2023-02-16T22:46:23.746Z,7.60
2023-02-16T22:48:52.926Z,7.60
2023-02-16T22:51:22.415Z,7.60
2023-02-16T22:53:50.485Z,7.60
2023-02-16T22:56:20.435Z,7.60
2023-02-16T22:58:49.870Z,7.60
2023-02-16T23:01:19.877Z,7.70
2023-02-16T23:03:49.680Z,7.70
2023-02-16T23:06:19.871Z,7.70
2023-02-16T23:08:51.919Z,7.70
2023-02-16T23:11:20.025Z,7.80
2023-02-16T23:13:49.760Z,7.80
2023-02-16T23:16:20.034Z,7.90
2023-02-16T23:18:48.753Z,7.90
2023-02-16T23:21:19.175Z,8.00
2023-02-16T23:23:48.230Z,8.00
2023-02-16T23:26:16.845Z,8.00
2023-02-16T23:28:45.590Z,7.90
2023-02-16T23:31:15.128Z,8.00
2023-02-16T23:33:43.378Z,8.00
2023-02-16T23:36:12.154Z,8.00
2023-02-16T23:38:40.182Z,8.00
2023-02-16T23:41:11.722Z,8.00
2023-02-16T23:43:40.262Z,8.00
2023-02-16T23:46:08.873Z,8.00
2023-02-16T23:48:39.093Z,8.00
2023-02-16T23:51:07.631Z,8.00
2023-02-16T23:53:36.229Z,8.00
2023-02-16T23:56:08.208Z,8.00
2023-02-16T23:58:41.064Z,8.00
